createdAt,value
2023-01-17T00:03:03.253Z,97265.09
2023-01-17T00:06:24.135Z,97271.31
2023-01-17T00:09:44.486Z,97272.19
2023-01-17T00:12:55.553Z,97275.72
2023-01-17T00:15:58.178Z,97282.25
2023-01-17T00:19:19.795Z,97271.44
2023-01-17T00:22:37.992Z,97283.22
2023-01-17T00:26:01.221Z,97281.75
2023-01-17T00:29:03.572Z,97282.59
2023-01-17T00:32:05.401Z,97276.38
2023-01-17T00:35:11.900Z,97287.31
2023-01-17T00:38:16.554Z,97293.75
2023-01-17T00:41:20.372Z,97310.81
2023-01-17T00:44:46.717Z,97308.44
2023-01-17T00:48:06.808Z,97307.81
2023-01-17T00:51:28.141Z,97307.25
2023-01-17T00:54:48.389Z,97309.19
2023-01-17T00:58:09.824Z,97317.22
2023-01-17T01:01:30.355Z,97326.28
2023-01-17T01:04:53.621Z,97330.88
2023-01-17T01:08:15.483Z,97341.59
2023-01-17T01:11:38.460Z,97349.63
2023-01-17T01:15:04.679Z,97350.59
2023-01-17T01:18:31.121Z,97347.38
2023-01-17T01:21:51.761Z,97350.41
2023-01-17T01:25:13.408Z,97360.47
2023-01-17T01:28:33.525Z,97365.84
2023-01-17T01:31:56.523Z,97379.56
2023-01-17T01:34:59.141Z,97386.84
2023-01-17T01:38:03.288Z,97387.13
2023-01-17T01:41:07.686Z,97397.88
2023-01-17T01:44:43.635Z,97398.19
2023-01-17T01:47:47.684Z,97403.75
2023-01-17T01:50:53.860Z,97408.03
2023-01-17T01:54:01.526Z,97409.38
2023-01-17T01:57:09.844Z,97426.81
2023-01-17T02:00:17.859Z,97424.34
2023-01-17T02:03:24.127Z,97442.34
2023-01-17T02:06:31.375Z,97433.75
2023-01-17T02:09:34.045Z,97443.31
2023-01-17T02:12:38.600Z,97452.38
2023-01-17T02:15:50.325Z,97463.78
2023-01-17T02:19:01.076Z,97471.41
2023-01-17T02:22:28.605Z,97459.19
2023-01-17T02:26:19.374Z,97459.84
2023-01-17T02:30:04.378Z,97457.06
2023-01-17T02:33:23.478Z,97466.50
2023-01-17T02:36:39.493Z,97455.91
2023-01-17T02:39:49.725Z,97462.00
2023-01-17T02:42:59.321Z,97453.00
2023-01-17T02:46:02.174Z,97447.47
2023-01-17T02:49:06.220Z,97460.09
2023-01-17T02:52:37.557Z,97457.81
2023-01-17T02:55:52.391Z,97452.47
2023-01-17T02:59:08.717Z,97457.38
2023-01-17T03:02:20.812Z,97462.72
2023-01-17T03:05:33.344Z,97468.09
2023-01-17T03:08:36.150Z,97467.09
2023-01-17T03:11:38.913Z,97461.88
2023-01-17T03:14:41.626Z,97474.50
2023-01-17T03:17:50.271Z,97482.53
2023-01-17T03:20:54.287Z,97473.38
2023-01-17T03:23:57.012Z,97480.00
2023-01-17T03:26:59.717Z,97479.31
2023-01-17T03:30:03.433Z,97486.97
2023-01-17T03:33:06.150Z,97481.91
2023-01-17T03:36:13.264Z,97479.91
2023-01-17T03:39:15.917Z,97486.06
2023-01-17T03:42:18.714Z,97491.88
2023-01-17T03:45:21.394Z,97491.69
2023-01-17T03:48:24.145Z,97506.41
2023-01-17T03:51:28.197Z,97501.69
2023-01-17T03:54:30.913Z,97512.94
2023-01-17T03:57:33.628Z,97520.00
2023-01-17T04:00:36.854Z,97517.69
2023-01-17T04:03:39.566Z,97521.78
2023-01-17T04:06:43.671Z,97520.75
2023-01-17T04:09:46.417Z,97529.22
2023-01-17T04:12:49.327Z,97529.59
2023-01-17T04:15:52.524Z,97534.22
2023-01-17T04:18:55.383Z,97538.03
2023-01-17T04:21:59.384Z,97537.53
2023-01-17T04:25:08.932Z,97534.25
2023-01-17T04:28:12.155Z,97539.09
2023-01-17T04:31:16.795Z,97547.38
2023-01-17T04:34:19.994Z,97543.22
2023-01-17T04:37:26.926Z,97532.63
2023-01-17T04:40:29.696Z,97546.22
2023-01-17T04:43:43.344Z,97539.44
2023-01-17T04:46:46.021Z,97538.06
2023-01-17T04:49:48.747Z,97540.97
2023-01-17T04:52:52.726Z,97542.88
2023-01-17T04:55:55.534Z,97551.31
2023-01-17T04:58:58.635Z,97551.72
2023-01-17T05:02:01.305Z,97552.75
2023-01-17T05:05:04.002Z,97553.78
2023-01-17T05:08:07.983Z,97546.09
2023-01-17T05:11:10.631Z,97552.38
2023-01-17T05:14:13.350Z,97546.44
2023-01-17T05:17:16.397Z,97552.72
2023-01-17T05:20:19.400Z,97557.00
2023-01-17T05:23:23.463Z,97559.53
2023-01-17T05:26:26.552Z,97558.44
2023-01-17T05:29:29.420Z,97551.44
2023-01-17T05:32:32.162Z,97554.13
2023-01-17T05:35:34.856Z,97563.94
2023-01-17T05:38:39.017Z,97573.81
2023-01-17T05:41:44.457Z,97573.03
2023-01-17T05:44:47.744Z,97579.41
2023-01-17T05:47:52.442Z,97586.38
2023-01-17T05:50:55.127Z,97579.34
2023-01-17T05:53:59.244Z,97581.03
2023-01-17T05:57:02.012Z,97572.41
2023-01-17T06:00:05.848Z,97571.03
2023-01-17T06:03:08.635Z,97570.41
2023-01-17T06:06:11.349Z,97575.13
2023-01-17T06:09:15.405Z,97577.25
2023-01-17T06:12:18.075Z,97567.78
2023-01-17T06:15:20.909Z,97583.00
2023-01-17T06:18:23.615Z,97575.31
2023-01-17T06:21:26.432Z,97576.63
2023-01-17T06:24:30.531Z,97575.97
2023-01-17T06:27:33.348Z,97587.91
2023-01-17T06:30:36.687Z,97586.22
2023-01-17T06:33:39.346Z,97586.56
2023-01-17T06:36:44.063Z,97591.03
2023-01-17T06:39:48.981Z,97589.44
2023-01-17T06:42:52.047Z,97593.66
2023-01-17T06:45:56.158Z,97583.84
2023-01-17T06:48:58.875Z,97594.75
2023-01-17T06:52:02.009Z,97593.34
2023-01-17T06:55:07.311Z,97582.53
2023-01-17T06:58:10.843Z,97595.72
2023-01-17T07:01:14.118Z,97587.31
2023-01-17T07:04:17.521Z,97589.56
2023-01-17T07:07:20.200Z,97592.25
2023-01-17T07:10:24.427Z,97587.31
2023-01-17T07:13:27.433Z,97589.19
2023-01-17T07:16:30.328Z,97580.00
2023-01-17T07:19:33.043Z,97585.19
2023-01-17T07:22:37.640Z,97602.38
2023-01-17T07:25:41.820Z,97606.53
2023-01-17T07:28:44.792Z,97598.75
2023-01-17T07:31:49.763Z,97600.66
2023-01-17T07:34:52.441Z,97601.19
2023-01-17T07:37:55.870Z,97615.59
2023-01-17T07:41:00.712Z,97601.00
2023-01-17T07:44:03.387Z,97612.59
2023-01-17T07:47:06.036Z,97609.94
2023-01-17T07:50:10.163Z,97609.63
2023-01-17T07:53:12.854Z,97611.03
2023-01-17T07:56:16.897Z,97604.56
2023-01-17T07:59:19.709Z,97596.97
2023-01-17T08:02:24.225Z,97598.66
2023-01-17T08:05:27.572Z,97587.84
2023-01-17T08:08:30.554Z,97564.00
2023-01-17T08:11:34.594Z,97579.84
2023-01-17T08:14:37.451Z,97584.25
2023-01-17T08:17:40.299Z,97581.78
2023-01-17T08:20:44.265Z,97580.50
2023-01-17T08:23:48.939Z,97575.16
2023-01-17T08:26:54.919Z,97564.63
2023-01-17T08:29:57.739Z,97569.19
2023-01-17T08:33:01.498Z,97563.84
2023-01-17T08:36:04.484Z,97554.84
2023-01-17T08:39:07.901Z,97550.19
2023-01-17T08:42:11.944Z,97552.00
2023-01-17T08:45:15.194Z,97549.25
2023-01-17T08:48:20.895Z,97553.84
2023-01-17T08:51:24.876Z,97559.84
2023-01-17T08:54:28.853Z,97556.19
2023-01-17T08:57:40.476Z,97554.13
2023-01-17T09:00:43.587Z,97557.50
2023-01-17T09:03:46.844Z,97562.78
2023-01-17T09:06:57.129Z,97559.84
2023-01-17T09:09:59.894Z,97562.28
2023-01-17T09:13:07.069Z,97566.59
2023-01-17T09:16:10.549Z,97559.78
2023-01-17T09:19:13.553Z,97557.16
2023-01-17T09:22:17.978Z,97558.03
2023-01-17T09:25:23.646Z,97558.03
2023-01-17T09:28:28.941Z,97562.22
2023-01-17T09:31:40.415Z,97563.19
2023-01-17T09:34:43.177Z,97571.81
2023-01-17T09:37:46.076Z,97567.22
2023-01-17T09:40:49.909Z,97576.41
2023-01-17T09:44:09.965Z,97570.72
2023-01-17T09:47:19.371Z,97578.50
2023-01-17T09:50:32.145Z,97575.09
2023-01-17T09:53:37.712Z,97582.75
2023-01-17T09:56:47.666Z,97586.56
2023-01-17T10:00:03.757Z,97591.28
2023-01-17T10:03:42.977Z,97606.16
2023-01-17T10:07:05.595Z,97602.69
2023-01-17T10:10:34.350Z,97598.22
2023-01-17T10:13:49.406Z,97592.13
2023-01-17T10:17:06.297Z,97594.25
2023-01-17T10:20:20.212Z,97589.69
2023-01-17T10:23:45.336Z,97579.50
2023-01-17T10:26:51.524Z,97570.59
2023-01-17T10:29:54.401Z,97568.09
2023-01-17T10:33:02.778Z,97564.66
2023-01-17T10:36:20.587Z,97561.19
2023-01-17T10:39:25.053Z,97554.88
2023-01-17T10:42:35.111Z,97542.81
2023-01-17T10:45:43.640Z,97537.44
2023-01-17T10:48:50.498Z,97539.63
2023-01-17T10:52:08.791Z,97530.41
2023-01-17T10:55:32.763Z,97528.78
2023-01-17T10:58:35.475Z,97533.72
2023-01-17T11:01:38.263Z,97533.91
2023-01-17T11:04:45.023Z,97529.25
2023-01-17T11:07:58.648Z,97526.28
2023-01-17T11:11:05.146Z,97519.34
2023-01-17T11:14:17.524Z,97519.22
2023-01-17T11:17:20.991Z,97510.34
2023-01-17T11:20:34.252Z,97512.03
2023-01-17T11:23:37.297Z,97499.88
2023-01-17T11:26:49.363Z,97488.81
2023-01-17T11:30:04.633Z,97489.00
2023-01-17T11:33:34.207Z,97485.28
2023-01-17T11:36:38.249Z,97475.50
2023-01-17T11:39:44.446Z,97465.63
2023-01-17T11:43:19.624Z,97454.91
2023-01-17T11:46:22.788Z,97440.97
2023-01-17T11:49:30.290Z,97429.19
2023-01-17T11:52:39.116Z,97419.94
2023-01-17T11:55:55.078Z,97414.25
2023-01-17T11:59:29.674Z,97411.38
2023-01-17T12:03:07.146Z,97401.25
2023-01-17T12:06:20.396Z,97407.50
2023-01-17T12:09:38.546Z,97395.38
2023-01-17T12:13:09.312Z,97395.91
2023-01-17T12:16:28.392Z,97396.78
2023-01-17T12:19:54.506Z,97398.81
2023-01-17T12:23:14.271Z,97385.16
2023-01-17T12:26:28.525Z,97385.16
2023-01-17T12:29:44.659Z,97370.50
2023-01-17T12:33:07.084Z,97379.16
2023-01-17T12:36:17.642Z,97375.72
2023-01-17T12:39:26.099Z,97361.34
2023-01-17T12:42:36.183Z,97360.59
2023-01-17T12:45:44.008Z,97348.06
2023-01-17T12:48:47.691Z,97352.13
2023-01-17T12:51:54.497Z,97350.41
2023-01-17T12:55:02.242Z,97358.13
2023-01-17T12:58:11.787Z,97361.19
2023-01-17T13:01:23.095Z,97347.88
2023-01-17T13:04:30.765Z,97344.56
2023-01-17T13:07:44.167Z,97354.34
2023-01-17T13:10:51.163Z,97345.75
2023-01-17T13:13:57.952Z,97347.94
2023-01-17T13:17:03.695Z,97338.81
2023-01-17T13:20:18.362Z,97314.78
2023-01-17T13:23:30.813Z,97346.53
2023-01-17T13:26:50.741Z,97362.63
2023-01-17T13:30:08.628Z,97358.75
2023-01-17T13:33:36.567Z,97339.88
2023-01-17T13:36:52.532Z,97346.47
2023-01-17T13:40:19.346Z,97344.94
2023-01-17T13:43:26.768Z,97332.25
2023-01-17T13:46:32.614Z,97312.72
2023-01-17T13:49:44.641Z,97316.28
2023-01-17T13:52:50.911Z,97296.34
2023-01-17T13:55:59.852Z,97299.78
2023-01-17T13:59:27.360Z,97318.09
2023-01-17T14:02:39.172Z,97316.06
2023-01-17T14:05:49.239Z,97295.16
2023-01-17T14:08:52.105Z,97303.63
2023-01-17T14:11:59.214Z,97302.53
2023-01-17T14:15:03.207Z,97302.00
2023-01-17T14:18:32.555Z,97307.81
2023-01-17T14:21:36.808Z,97295.47
2023-01-17T14:24:59.201Z,97287.84
2023-01-17T14:28:04.413Z,97297.81
2023-01-17T14:31:11.021Z,97286.84
2023-01-17T14:34:22.744Z,97290.72
2023-01-17T14:37:42.034Z,97289.28
2023-01-17T14:40:53.576Z,97285.97
2023-01-17T14:43:59.601Z,97275.22
2023-01-17T14:47:03.033Z,97281.03
2023-01-17T14:50:22.258Z,97284.88
2023-01-17T14:53:28.198Z,97280.72
2023-01-17T14:56:32.204Z,97288.94
2023-01-17T14:59:34.905Z,97293.44
2023-01-17T15:02:42.385Z,97290.84
2023-01-17T15:05:50.548Z,97287.19
2023-01-17T15:08:54.437Z,97299.75
2023-01-17T15:11:58.383Z,97311.66
2023-01-17T15:15:02.060Z,97305.81
2023-01-17T15:18:27.754Z,97310.44
2023-01-17T15:21:35.779Z,97300.63
2023-01-17T15:24:44.481Z,97315.63
2023-01-17T15:27:47.207Z,97319.47
2023-01-17T15:31:05.901Z,97314.72
2023-01-17T15:34:12.732Z,97312.53
2023-01-17T15:37:30.515Z,97327.94
2023-01-17T15:40:33.242Z,97327.66
2023-01-17T15:43:36.118Z,97338.56
2023-01-17T15:46:43.386Z,97355.94
2023-01-17T15:49:52.042Z,97327.91
2023-01-17T15:52:57.818Z,97349.66
2023-01-17T15:56:01.255Z,97356.28
2023-01-17T15:59:31.415Z,97358.28
2023-01-17T16:02:38.775Z,97349.22
2023-01-17T16:05:44.805Z,97341.06
2023-01-17T16:08:53.944Z,97355.50
2023-01-17T16:11:56.815Z,97361.03
2023-01-17T16:15:11.722Z,97338.69
2023-01-17T16:18:18.781Z,97354.59
2023-01-17T16:21:24.734Z,97357.56
2023-01-17T16:24:29.093Z,97326.13
2023-01-17T16:27:31.797Z,97336.91
2023-01-17T16:30:34.867Z,97339.97
2023-01-17T16:33:37.564Z,97344.44
2023-01-17T16:36:40.359Z,97349.22
2023-01-17T16:39:44.450Z,97351.41
2023-01-17T16:42:47.537Z,97303.44
2023-01-17T16:45:54.046Z,97348.13
2023-01-17T16:48:57.333Z,97346.41
2023-01-17T16:52:00.209Z,97358.66
2023-01-17T16:55:04.476Z,97363.97
2023-01-17T16:58:07.165Z,97365.88
2023-01-17T17:01:11.170Z,97376.56
2023-01-17T17:04:13.968Z,97371.41
2023-01-17T17:07:16.704Z,97376.84
2023-01-17T17:10:25.060Z,97376.00
2023-01-17T17:13:28.418Z,97361.28
2023-01-17T17:16:32.815Z,97375.13
2023-01-17T17:19:35.961Z,97376.94
2023-01-17T17:22:38.768Z,97385.03
2023-01-17T17:25:42.801Z,97385.13
2023-01-17T17:28:45.781Z,97389.72
2023-01-17T17:31:48.607Z,97383.50
2023-01-17T17:34:51.639Z,97378.50
2023-01-17T17:37:56.108Z,97388.06
2023-01-17T17:41:07.469Z,97401.59
2023-01-17T17:44:10.394Z,97396.44
2023-01-17T17:47:13.795Z,97390.41
2023-01-17T17:50:17.132Z,97400.22
2023-01-17T17:53:21.745Z,97404.69
2023-01-17T17:56:25.811Z,97401.38
2023-01-17T17:59:29.871Z,97405.94
2023-01-17T18:02:32.652Z,97408.69
2023-01-17T18:05:35.359Z,97409.63
2023-01-17T18:08:38.913Z,97415.91
2023-01-17T18:11:44.317Z,97412.56
2023-01-17T18:14:47.903Z,97408.25
2023-01-17T18:17:50.864Z,97420.75
2023-01-17T18:20:53.701Z,97426.22
2023-01-17T18:23:59.772Z,97429.97
2023-01-17T18:27:03.908Z,97433.72
2023-01-17T18:30:08.047Z,97431.06
2023-01-17T18:33:10.848Z,97440.00
2023-01-17T18:36:14.936Z,97430.19
2023-01-17T18:39:19.908Z,97414.09
2023-01-17T18:42:24.611Z,97425.06
2023-01-17T18:45:27.428Z,97424.19
2023-01-17T18:48:30.173Z,97425.06
2023-01-17T18:51:34.878Z,97435.81
2023-01-17T18:54:37.618Z,97424.69
2023-01-17T18:57:41.810Z,97437.03
2023-01-17T19:00:44.518Z,97430.03
2023-01-17T19:03:49.262Z,97444.31
2023-01-17T19:06:51.996Z,97439.06
2023-01-17T19:09:54.699Z,97441.06
2023-01-17T19:12:58.745Z,97455.50
2023-01-17T19:16:02.960Z,97449.66
2023-01-17T19:19:08.004Z,97469.09
2023-01-17T19:22:10.871Z,97470.28
2023-01-17T19:25:13.787Z,97475.81
2023-01-17T19:28:17.873Z,97479.81
2023-01-17T19:31:23.581Z,97484.44
2023-01-17T19:34:26.531Z,97491.13
2023-01-17T19:37:29.637Z,97486.84
2023-01-17T19:40:32.360Z,97493.13
2023-01-17T19:43:36.710Z,97496.00
2023-01-17T19:46:39.797Z,97491.53
2023-01-17T19:49:44.397Z,97497.06
2023-01-17T19:52:47.128Z,97496.19
2023-01-17T19:55:49.906Z,97494.53
2023-01-17T19:58:54.502Z,97489.28
2023-01-17T20:01:57.362Z,97491.88
2023-01-17T20:05:00.247Z,97490.94
2023-01-17T20:08:03.730Z,97503.25
2023-01-17T20:11:07.792Z,97498.13
2023-01-17T20:14:15.222Z,97501.44
2023-01-17T20:17:17.906Z,97497.91
2023-01-17T20:20:22.740Z,97500.47
2023-01-17T20:23:32.898Z,97503.06
2023-01-17T20:26:36.388Z,97506.53
2023-01-17T20:29:40.733Z,97507.38
2023-01-17T20:32:43.390Z,97497.50
2023-01-17T20:35:46.180Z,97503.59
2023-01-17T20:38:49.338Z,97500.00
2023-01-17T20:41:52.100Z,97501.56
2023-01-17T20:44:56.185Z,97499.69
2023-01-17T20:47:59.173Z,97503.19
2023-01-17T20:51:06.377Z,97504.84
2023-01-17T20:54:13.034Z,97517.09
2023-01-17T20:57:15.773Z,97515.19
2023-01-17T21:00:23.026Z,97515.97
2023-01-17T21:03:28.753Z,97509.78
2023-01-17T21:06:31.754Z,97519.88
2023-01-17T21:09:34.499Z,97516.09
2023-01-17T21:12:40.195Z,97528.34
2023-01-17T21:15:46.592Z,97527.06
2023-01-17T21:18:50.442Z,97521.44
2023-01-17T21:21:53.146Z,97523.03
2023-01-17T21:25:03.362Z,97516.56
2023-01-17T21:28:09.636Z,97522.69
2023-01-17T21:31:38.603Z,97524.34
2023-01-17T21:35:03.994Z,97516.16
2023-01-17T21:38:06.878Z,97514.97
2023-01-17T21:41:09.798Z,97516.69
2023-01-17T21:44:27.948Z,97522.03
2023-01-17T21:47:32.797Z,97519.44
2023-01-17T21:50:39.048Z,97517.56
2023-01-17T21:53:44.686Z,97520.22
2023-01-17T21:57:07.988Z,97520.09
2023-01-17T22:00:14.681Z,97515.63
2023-01-17T22:03:27.048Z,97524.63
2023-01-17T22:06:35.282Z,97514.78
2023-01-17T22:09:37.957Z,97518.00
2023-01-17T22:12:40.669Z,97499.09
2023-01-17T22:15:43.870Z,97515.31
2023-01-17T22:18:48.465Z,97518.94
2023-01-17T22:21:51.159Z,97518.75
2023-01-17T22:24:53.836Z,97526.50
2023-01-17T22:27:57.059Z,97523.13
2023-01-17T22:31:06.511Z,97520.38
2023-01-17T22:34:19.839Z,97518.75
2023-01-17T22:37:24.779Z,97516.84
2023-01-17T22:40:27.897Z,97516.69
2023-01-17T22:43:30.521Z,97512.28
2023-01-17T22:46:35.584Z,97504.28
2023-01-17T22:49:39.722Z,97514.88
2023-01-17T22:52:44.603Z,97507.75
2023-01-17T22:55:47.235Z,97501.53
2023-01-17T22:58:53.440Z,97498.59
2023-01-17T23:01:59.583Z,97497.81
2023-01-17T23:05:04.017Z,97497.13
2023-01-17T23:08:08.823Z,97491.78
2023-01-17T23:11:40.817Z,97493.09
2023-01-17T23:15:02.029Z,97493.97
2023-01-17T23:18:22.186Z,97491.16
2023-01-17T23:21:58.372Z,97487.84
2023-01-17T23:25:02.506Z,97485.00
2023-01-17T23:28:23.151Z,97484.13
2023-01-17T23:31:25.851Z,97452.09
2023-01-17T23:34:31.530Z,97483.34
2023-01-17T23:37:55.483Z,97481.47
2023-01-17T23:41:20.662Z,97480.59
2023-01-17T23:44:27.190Z,97474.41
2023-01-17T23:47:29.846Z,97474.56
2023-01-17T23:50:32.616Z,97478.19
2023-01-17T23:53:37.803Z,97472.75
2023-01-17T23:56:42.978Z,97472.59
2023-01-17T23:59:48.757Z,97469.81
